Milroy, IN (46156)

2:24 PM EST on November 28, 2014 (GMT -0500)
RMR - Greensburg | Change Station
CLOSE
Current Station
Personal Weather Station
Location: Greensburg, IN
Elevation: 975 ft
Nearby Weather Stations

Elev 975 ft 39.34 °N, 85.49 °W | Updated 13 minutes ago

Partly Cloudy
Partly Cloudy
31.6 °F
Feels Like 32 °F
N
0.0
Wind Variable Wind from SE
Gusts 4.0 mph

Today
High -- | Low -- °F
--% Chance of Precip.
Yesterday
High -- | Low -- °F
Precip. -- in
7:40 AM 5:19 PM
Waxing Crescent, 43% visible
Pressure 30.25 in
Visibility 10.0 miles
Clouds Clear
Windchill 32 °F
Dew Point 21 °F
Humidity 64%
Rainfall 0.00 in
Snow Depth Not available.
UV 2 out of 12
Pollen .10 out of 12
Air Quality Not available.
Flu Activity Not available.
METAR KGEZ 281853Z AUTO 17011KT 10SM CLR 01/M07 A3022 RMK AO2 SLP242 T00061067

More Conditions Fewer Conditions

Pressure 30.25 in
Visibility 10.0 miles
Clouds Clear
Windchill 32 °F
Dew Point 21 °F
Humidity 64%
Rainfall 0.00 in
Snow Depth Not available.
UV 2 out of 12
Pollen .10 out of 12
Air Quality Not available.
Flu Activity Not available.
METAR KGEZ 281853Z AUTO 17011KT 10SM CLR 01/M07 A3022 RMK AO2 SLP242 T00061067

More Conditions Fewer Conditions

10-Day Weather Forecast

Almanac

Astronomy

Nov. 28, 2014 Rise Set
Actual Time
Civil Twilight
Nautical Twilight
Astronomical Twilight
Moon
Length of Visible Light
Length of Day
Tomorrow will be .
, % of the Moon is Illuminated

Today's Extremes

State Highs State Lows

Community

WunderPhotos

Upload Photos

1,774,266 photos uploaded!

WunderBlogs® & News

Nearby

Air Quality

  Air Quality AQ Index Pollutant
Not available.

Snow Depth

Station Depth Elevation

Earthquake Activity

City Distance Mag. Time & Date
Minimum magnitude displayed is 2.5.

Coastal Water Temperatures

Place Temperature

Nearby Weather Stations